sensor_id;sensor_type;location;lat;lon;timestamp;pressure;altitude;pressure_sealevel;temperature;humidity
46382;BME280;66809;52.974;-2.514;2024-02-14T00:01:40;999.4238440891507;;;7.106408909757769;48.68471925377598
46382;BME280;66809;52.974;-2.514;2024-02-14T00:03:41;999.441628837835;;;7.129447391310866;48.73356180340741
46382;BME280;66809;52.974;-2.514;2024-02-14T00:05:40;999.45919182723;;;7.150864320619761;48.7860791002184
46382;BME280;66809;52.974;-2.514;2024-02-14T00:07:40;999.4774111043496;;;7.178961730941595;48.83569136261743
46382;BME280;66809;52.974;-2.514;2024-02-14T00:09:40;999.494260772481;;;7.207235569928459;48.88589603419584
46382;BME280;66809;52.974;-2.514;2024-02-14T00:11:41;999.5114007639392;;;7.234172463988364;48.931597177445916
46382;BME280;66809;52.974;-2.514;2024-02-14T00:13:41;999.5282210144024;;;7.254111527889657;48.966944303833166
46382;BME280;66809;52.974;-2.514;2024-02-14T00:15:40;999.5444398530368;;;7.281201584822493;48.9887112365749
46382;BME280;66809;52.974;-2.514;2024-02-14T00:17:40;999.5584171226187;;;7.2966673994855995;49.005894312252806
46382;BME280;66809;52.974;-2.514;2024-02-14T00:19:41;999.5704643136414;;;7.320747733047633;49.02573487948771
46382;BME280;66809;52.974;-2.514;2024-02-14T00:21:40;999.581601729719;;;7.339571537171968;49.04463502149886
46382;BME280;66809;52.974;-2.514;2024-02-14T00:23:40;999.5935297917713;;;7.356746694276492;49.077252517652944
46382;BME280;66809;52.974;-2.514;2024-02-14T00:25:40;999.6045884561873;;;7.377835189940469;49.120061746424994
46382;BME280;66809;52.974;-2.514;2024-02-14T00:27:40;999.6158439568187;;;7.390816814985896;49.16785862884725
46382;BME280;66809;52.974;-2.514;2024-02-14T00:29:40;999.626905129692;;;7.41504111622467;49.20697734956606
46382;BME280;66809;52.974;-2.514;2024-02-14T00:31:40;999.6378424996541;;;7.430806483182435;49.21486514001651
46382;BME280;66809;52.974;-2.514;2024-02-14T00:33:41;999.6494594062029;;;7.464616148498324;49.21813182284003
46382;BME280;66809;52.974;-2.514;2024-02-14T00:35:40;999.6632950474458;;;7.49758758574807;49.204355304657376
46382;BME280;66809;52.974;-2.514;2024-02-14T00:37:40;999.6776140118162;;;7.532390644768608;49.1827028306508
46382;BME280;66809;52.974;-2.514;2024-02-14T00:39:40;999.6909573875181;;;7.5676864306602765;49.15387450917236
46382;BME280;66809;52.974;-2.514;2024-02-14T00:41:40;999.7031250438034;;;7.611858577476559;49.117684262931334
46382;BME280;66809;52.974;-2.514;2024-02-14T00:43:40;999.7136745918175;;;7.636226423957358;49.066851453003515
46382;BME280;66809;52.974;-2.514;2024-02-14T00:45:40;999.723707412184;;;7.67137942928568;49.00215227668211
46382;BME280;66809;52.974;-2.514;2024-02-14T00:47:41;999.7315285155221;;;7.706298251079859;48.941942058564806
46382;BME280;66809;52.974;-2.514;2024-02-14T00:49:40;999.7354670458132;;;7.7333781905889;48.888348190101944
46382;BME280;66809;52.974;-2.514;2024-02-14T00:51:40;999.738588765114;;;7.758288537434109;48.84759675773639
46382;BME280;66809;52.974;-2.514;2024-02-14T00:53:40;999.7398589131968;;;7.779829751876174;48.81594585170316
46382;BME280;66809;52.974;-2.514;2024-02-14T00:55:40;999.7405634121116;;;7.798929010608521;48.79552770240445
46382;BME280;66809;52.974;-2.514;2024-02-14T00:57:40;999.7409732419727;;;7.824848624644372;48.76579695469344
46382;BME280;66809;52.974;-2.514;2024-02-14T00:59:40;999.7423172516898;;;7.826278696288182;48.736894067975314
46382;BME280;66809;52.974;-2.514;2024-02-14T01:01:41;999.7431392985028;;;7.851457027217773;48.70747869928635
46382;BME280;66809;52.974;-2.514;2024-02-14T01:03:41;999.7440082276637;;;7.867674469862204;48.68672168277873
46382;BME280;66809;52.974;-2.514;2024-02-14T01:05:40;999.7451133846116;;;7.891033468144271;48.66255336538437
46382;BME280;66809;52.974;-2.514;2024-02-14T01:07:40;999.7450115320313;;;7.91865220021728;48.631133666730435
46382;BME280;66809;52.974;-2.514;2024-02-14T01:09:41;999.7447978081752;;;7.937497339584061;48.58915439540342
46382;BME280;66809;52.974;-2.514;2024-02-14T01:11:40;999.7438933990005;;;7.95489739370384;48.537221075731445
46382;BME280;66809;52.974;-2.514;2024-02-14T01:13:40;999.7427305925696;;;7.978791187150237;48.49232321040706
46382;BME280;66809;52.974;-2.514;2024-02-14T01:15:40;999.7413531836996;;;7.99788650577553;48.446640186590415
46382;BME280;66809;52.974;-2.514;2024-02-14T01:17:40;999.7399219041733;;;8.020721673400555;48.39918573926324
46382;BME280;66809;52.974;-2.514;2024-02-14T01:19:40;999.7403085495695;;;8.04153393133442;48.347000694707475
46382;BME280;66809;52.974;-2.514;2024-02-14T01:21:40;999.7398945691335;;;8.06962023776958;48.28882155029209
46382;BME280;66809;52.974;-2.514;2024-02-14T01:23:40;999.7389977744718;;;8.089358985628108;48.2096446531648
46382;BME280;66809;52.974;-2.514;2024-02-14T01:25:40;999.7398954272343;;;8.111127099288293;48.13837204193207
46382;BME280;66809;52.974;-2.514;2024-02-14T01:27:40;999.7393577764118;;;8.127870923565014;48.07034677433587
46382;BME280;66809;52.974;-2.514;2024-02-14T01:29:40;999.738890432791;;;8.139304792676986;48.007210775324666
46382;BME280;66809;52.974;-2.514;2024-02-14T01:31:40;999.7365524433969;;;8.152814954468822;47.96358240314626
46382;BME280;66809;52.974;-2.514;2024-02-14T01:33:40;999.7335773483126;;;8.159972294501872;47.91488512232177
46382;BME280;66809;52.974;-2.514;2024-02-14T01:35:40;999.7276696852811;;;8.161643234855395;47.867869074774454
46382;BME280;66809;52.974;-2.514;2024-02-14T01:37:41;999.7217983007288;;;8.160516361426112;47.8355090885858
46382;BME280;66809;52.974;-2.514;2024-02-14T01:39:40;999.7156977224396;;;8.165935558251755;47.80519899205282
46382;BME280;66809;52.974;-2.514;2024-02-14T01:41:44;999.7110380283539;;;8.15746444097665;47.77573555529242
46382;BME280;66809;52.974;-2.514;2024-02-14T01:43:40;999.7052245677246;;;8.1531700696403;47.746350731832834
46382;BME280;66809;52.974;-2.514;2024-02-14T01:45:40;999.6986292687553;;;8.16213587593167;47.731683861406154
46382;BME280;66809;52.974;-2.514;2024-02-14T01:47:41;999.6933769529169;;;8.16617615553341;47.71737482722969
46382;BME280;66809;52.974;-2.514;2024-02-14T01:49:40;999.691082931835;;;8.174534993006544;47.674089645774266
46382;BME280;66809;52.974;-2.514;2024-02-14T01:51:42;999.6893636386878;;;8.184868261714659;47.63122378580756
46382;BME280;66809;52.974;-2.514;2024-02-14T01:53:40;999.6892879129671;;;8.208796771194645;47.584643682466144
46382;BME280;66809;52.974;-2.514;2024-02-14T01:55:40;999.6897923267871;;;8.228886570567688;47.51766960416804
46382;BME280;66809;52.974;-2.514;2024-02-14T01:57:40;999.6895737927747;;;8.238414205071315;47.44966189591086
46382;BME280;66809;52.974;-2.514;2024-02-14T01:59:40;999.6876427870296;;;8.254682156162389;47.391553321385565
46382;BME280;66809;52.974;-2.514;2024-02-14T02:01:40;999.68629150807;;;8.255639865788565;47.34724022088814
46382;BME280;66809;52.974;-2.514;2024-02-14T02:03:40;999.6849577772905;;;8.26602353238126;47.3115880207606
46382;BME280;66809;52.974;-2.514;2024-02-14T02:05:41;999.6818418987704;;;8.276929143979705;47.25883875407572
46382;BME280;66809;52.974;-2.514;2024-02-14T02:07:40;999.6797615115096;;;8.265803039430631;47.23450813129986
46382;BME280;66809;52.974;-2.514;2024-02-14T02:09:40;999.6784935791776;;;8.261904579384561;47.21480653902441
46382;BME280;66809;52.974;-2.514;2024-02-14T02:11:45;999.6786583958769;;;8.263326542153637;47.2129506055651
46382;BME280;66809;52.974;-2.514;2024-02-14T02:13:41;999.68036335;;;8.251169059268518;47.21915002964968
46382;BME280;66809;52.974;-2.514;2024-02-14T02:15:40;999.6813400608312;;;8.244836113945295;47.241155307531265
46382;BME280;66809;52.974;-2.514;2024-02-14T02:17:40;999.682932921952;;;8.23252843220186;47.26529751370131
46382;BME280;66809;52.974;-2.514;2024-02-14T02:19:40;999.6841275971038;;;8.216422081005621;47.28965560575469
46382;BME280;66809;52.974;-2.514;2024-02-14T02:21:42;999.6847110540223;;;8.208592575736155;47.30071150099245
46382;BME280;66809;52.974;-2.514;2024-02-14T02:23:40;999.6847725781707;;;8.197348950909593;47.32381563065408
46382;BME280;66809;52.974;-2.514;2024-02-14T02:25:41;999.6837565109003;;;8.190922566661564;47.34344595705267
46382;BME280;66809;52.974;-2.514;2024-02-14T02:27:40;999.681152110769;;;8.185378377516644;47.360651408739415
46382;BME280;66809;52.974;-2.514;2024-02-14T02:29:40;999.6787729869517;;;8.175035705372496;47.38049374518831
46382;BME280;66809;52.974;-2.514;2024-02-14T02:31:40;999.6781693255136;;;8.15878550659715;47.39672954721609
46382;BME280;66809;52.974;-2.514;2024-02-14T02:33:40;999.6784201799642;;;8.15379583993025;47.41267373835122
46382;BME280;66809;52.974;-2.514;2024-02-14T02:35:41;999.6799753452248;;;8.146410613813847;47.425444549611335
46382;BME280;66809;52.974;-2.514;2024-02-14T02:37:40;999.6824170489147;;;8.14474807388756;47.427511327643664
46382;BME280;66809;52.974;-2.514;2024-02-14T02:39:40;999.6839162772302;;;8.140153288245575;47.43490133199007
46382;BME280;66809;52.974;-2.514;2024-02-14T02:41:41;999.6835508148655;;;8.12714722523983;47.45316232480295
46382;BME280;66809;52.974;-2.514;2024-02-14T02:43:40;999.6853281065318;;;8.126157861459228;47.47522733396761
46382;BME280;66809;52.974;-2.514;2024-02-14T02:45:40;999.6877412991109;;;8.107319881201496;47.48725973524537
46382;BME280;66809;52.974;-2.514;2024-02-14T02:47:40;999.6904410541487;;;8.094331633077097;47.50546258167174
46382;BME280;66809;52.974;-2.514;2024-02-14T02:49:40;999.6933774094197;;;8.072016300066746;47.55459218551687
46382;BME280;66809;52.974;-2.514;2024-02-14T02:51:40;999.6942688627886;;;8.055810144053098;47.605465141740936
46382;BME280;66809;52.974;-2.514;2024-02-14T02:53:40;999.6893491956412;;;8.032201940409283;47.656262616046185
46382;BME280;66809;52.974;-2.514;2024-02-14T02:55:41;999.6867546003408;;;8.00711304927521;47.73368158379528
46382;BME280;66809;52.974;-2.514;2024-02-14T02:57:41;999.6818677288716;;;7.986225094084337;47.81621449933861
46382;BME280;66809;52.974;-2.514;2024-02-14T02:59:40;999.6781551274169;;;7.976571461762096;47.896152112051674
46382;BME280;66809;52.974;-2.514;2024-02-14T03:01:40;999.674772004451;;;7.962927878399316;47.96796682645888
46382;BME280;66809;52.974;-2.514;2024-02-14T03:03:40;999.6697394991162;;;7.951149506576174;48.02869835514411
46382;BME280;66809;52.974;-2.514;2024-02-14T03:05:40;999.6651710032712;;;7.9200037296420644;48.09861958579242
46382;BME280;66809;52.974;-2.514;2024-02-14T03:07:41;999.659025014498;;;7.924996484314292;48.144578431321094
46382;BME280;66809;52.974;-2.514;2024-02-14T03:09:40;999.6528997848843;;;7.92751806773527;48.18813617384313
46382;BME280;66809;52.974;-2.514;2024-02-14T03:11:40;999.646995064602;;;7.92219866887051;48.22414013613225
46382;BME280;66809;52.974;-2.514;2024-02-14T03:13:40;999.6386186110059;;;7.925307351913654;48.25424019185004
46382;BME280;66809;52.974;-2.514;2024-02-14T03:15:40;999.6323024102278;;;7.924165611594185;48.27701549371463
46382;BME280;66809;52.974;-2.514;2024-02-14T03:17:40;999.6244535878994;;;7.93089445787021;48.29174948373008
46382;BME280;66809;52.974;-2.514;2024-02-14T03:19:40;999.6155126610097;;;7.937666344411535;48.31070065011796
46382;BME280;66809;52.974;-2.514;2024-02-14T03:21:40;999.6077701499311;;;7.935237180675547;48.34634854512276
46382;BME280;66809;52.974;-2.514;2024-02-14T03:23:41;999.5997000982615;;;7.944547454614304;48.38549735935146
46382;BME280;66809;52.974;-2.514;2024-02-14T03:25:41;999.5934697902889;;;7.936162291603425;48.41671903130968
46382;BME280;66809;52.974;-2.514;2024-02-14T03:27:40;999.588405972961;;;7.945362312054646;48.44065959913208
46382;BME280;66809;52.974;-2.514;2024-02-14T03:29:40;999.5827679092503;;;7.949654624594461;48.47122638248071
46382;BME280;66809;52.974;-2.514;2024-02-14T03:31:40;999.5753548222249;;;7.964206625616046;48.49571757038368
46382;BME280;66809;52.974;-2.514;2024-02-14T03:33:40;999.5666458623436;;;7.966783937259265;48.52175938210921
46382;BME280;66809;52.974;-2.514;2024-02-14T03:35:40;999.5583578627601;;;7.978798588770649;48.55439786013524
46382;BME280;66809;52.974;-2.514;2024-02-14T03:37:40;999.549013732327;;;7.971398403164337;48.59513192051474
46382;BME280;66809;52.974;-2.514;2024-02-14T03:39:40;999.5413454273062;;;7.97849694414575;48.639651104273234
46382;BME280;66809;52.974;-2.514;2024-02-14T03:41:41;999.5343329162258;;;8.00473797905095;48.676115301946844
46382;BME280;66809;52.974;-2.514;2024-02-14T03:43:40;999.5270031623563;;;8.00913849999324;48.72037910482052
46382;BME280;66809;52.974;-2.514;2024-02-14T03:45:40;999.5190167498663;;;8.012594538726574;48.76341428939166
46382;BME280;66809;52.974;-2.514;2024-02-14T03:47:40;999.5087071366263;;;8.021056134463766;48.79409183202293
46382;BME280;66809;52.974;-2.514;2024-02-14T03:49:40;999.4974287471913;;;8.034439263953232;48.81718144170703
46382;BME280;66809;52.974;-2.514;2024-02-14T03:51:40;999.4861187238655;;;8.045688316151113;48.837330378504205
46382;BME280;66809;52.974;-2.514;2024-02-14T03:53:40;999.4768724003716;;;8.055861923805933;48.86281718073073
46382;BME280;66809;52.974;-2.514;2024-02-14T03:55:40;999.4648729367656;;;8.07201867135238;48.888018452607085
46382;BME280;66809;52.974;-2.514;2024-02-14T03:57:40;999.4541766379789;;;8.09039351518597;48.90828412299568
46382;BME280;66809;52.974;-2.514;2024-02-14T03:59:41;999.4440802151526;;;8.096213938470287;48.90411417690419
46382;BME280;66809;52.974;-2.514;2024-02-14T04:01:44;999.4360282366567;;;8.108556251245407;48.90805976754815
46382;BME280;66809;52.974;-2.514;2024-02-14T04:03:40;999.4289693647041;;;8.118679455366651;48.917791112093326
46382;BME280;66809;52.974;-2.514;2024-02-14T04:05:40;999.4215980742212;;;8.147186031099348;48.922777769609375
46382;BME280;66809;52.974;-2.514;2024-02-14T04:07:40;999.4127380358003;;;8.164124178389333;48.925606593329654
46382;BME280;66809;52.974;-2.514;2024-02-14T04:09:40;999.4018613124681;;;8.16451701725084;48.93548021626028
46382;BME280;66809;52.974;-2.514;2024-02-14T04:11:40;999.3896117718991;;;8.172666814991201;48.95212053549551
46382;BME280;66809;52.974;-2.514;2024-02-14T04:13:40;999.3786328240583;;;8.168097127939365;48.96960844497678
46382;BME280;66809;52.974;-2.514;2024-02-14T04:15:41;999.3675642453032;;;8.176177766140489;48.98726086443894
46382;BME280;66809;52.974;-2.514;2024-02-14T04:17:40;999.3583866106012;;;8.176715485006294;49.01879265849232
46382;BME280;66809;52.974;-2.514;2024-02-14T04:19:40;999.3522982110806;;;8.192654833547609;49.04859664814937
46382;BME280;66809;52.974;-2.514;2024-02-14T04:21:40;999.3445198499614;;;8.209088879256573;49.05288188633616
46382;BME280;66809;52.974;-2.514;2024-02-14T04:23:40;999.3350055133119;;;8.212044288523279;49.059091287842
46382;BME280;66809;52.974;-2.514;2024-02-14T04:25:41;999.3251593376225;;;8.229393197752591;49.081848262170936
46382;BME280;66809;52.974;-2.514;2024-02-14T04:27:41;999.317350693251;;;8.227635169257598;49.10269522053222
46382;BME280;66809;52.974;-2.514;2024-02-14T04:29:40;999.3118336430906;;;8.238837823258395;49.109729625348585
46382;BME280;66809;52.974;-2.514;2024-02-14T04:31:40;999.3072864027339;;;8.241063302768982;49.12004579234201
46382;BME280;66809;52.974;-2.514;2024-02-14T04:33:40;999.3040064585088;;;8.249288732547452;49.130170862185444
46382;BME280;66809;52.974;-2.514;2024-02-14T04:35:40;999.2994127963849;;;8.251320972362114;49.128802036765244
46382;BME280;66809;52.974;-2.514;2024-02-14T04:37:40;999.294544191825;;;8.26470964322513;49.12962716442112
46382;BME280;66809;52.974;-2.514;2024-02-14T04:39:40;999.2915924980151;;;8.262641768006791;49.12723820359352
46382;BME280;66809;52.974;-2.514;2024-02-14T04:41:41;999.2886824053529;;;8.261801582677625;49.137542175292516
46382;BME280;66809;52.974;-2.514;2024-02-14T04:43:40;999.2862214473429;;;8.263610025563157;49.1538606224152
46382;BME280;66809;52.974;-2.514;2024-02-14T04:45:40;999.2836434524735;;;8.267321791313515;49.18243592213398
46382;BME280;66809;52.974;-2.514;2024-02-14T04:47:40;999.28368694304;;;8.264162791154103;49.22586500040097
46382;BME280;66809;52.974;-2.514;2024-02-14T04:49:40;999.2854341486624;;;8.25554350623119;49.26858242199387
46382;BME280;66809;52.974;-2.514;2024-02-14T04:51:40;999.2878470256887;;;8.258393779831145;49.29658878747536
46382;BME280;66809;52.974;-2.514;2024-02-14T04:53:40;999.2933785160224;;;8.25202517302362;49.31810162869395
46382;BME280;66809;52.974;-2.514;2024-02-14T04:55:41;999.2997506836272;;;8.247513376925285;49.329909079862325
46382;BME280;66809;52.974;-2.514;2024-02-14T04:57:40;999.3075638905738;;;8.243489910824076;49.35254518721693
46382;BME280;66809;52.974;-2.514;2024-02-14T04:59:40;999.3162377815416;;;8.243558147195271;49.39285055564339
46382;BME280;66809;52.974;-2.514;2024-02-14T05:01:40;999.3240240595607;;;8.243978240144923;49.42535042282795
46382;BME280;66809;52.974;-2.514;2024-02-14T05:03:41;999.3321581403832;;;8.240372823196019;49.440849295723154
46382;BME280;66809;52.974;-2.514;2024-02-14T05:05:40;999.3415924579234;;;8.232095966843426;49.46135169432993
46382;BME280;66809;52.974;-2.514;2024-02-14T05:07:41;999.3541617422547;;;8.229835863340652;49.485948687988035
46382;BME280;66809;52.974;-2.514;2024-02-14T05:09:40;999.3685891097801;;;8.231163358344238;49.505915130730685
46382;BME280;66809;52.974;-2.514;2024-02-14T05:11:40;999.3855136802816;;;8.23746475848357;49.51913334312609
46382;BME280;66809;52.974;-2.514;2024-02-14T05:13:40;999.4021201810375;;;8.249176964823489;49.51937809176546
46382;BME280;66809;52.974;-2.514;2024-02-14T05:15:41;999.4172862443701;;;8.249884673589387;49.53229250961088
46382;BME280;66809;52.974;-2.514;2024-02-14T05:17:42;999.4314449408098;;;8.259741076443937;49.54421654106877
46382;BME280;66809;52.974;-2.514;2024-02-14T05:19:41;999.4431823277106;;;8.248153888207273;49.56262374522517
46382;BME280;66809;52.974;-2.514;2024-02-14T05:21:40;999.4561156587822;;;8.2391386811548;49.598321822264296
46382;BME280;66809;52.974;-2.514;2024-02-14T05:23:40;999.4726987400928;;;8.235509074233372;49.625911814378085
46382;BME280;66809;52.974;-2.514;2024-02-14T05:25:40;999.4895535948131;;;8.237659951629361;49.63391852446787
46382;BME280;66809;52.974;-2.514;2024-02-14T05:27:40;999.5044105562462;;;8.242063545701654;49.647038650378555
46382;BME280;66809;52.974;-2.514;2024-02-14T05:29:40;999.5168606162072;;;8.243733562426009;49.6675341229468
46382;BME280;66809;52.974;-2.514;2024-02-14T05:31:44;999.530787273253;;;8.239608243529739;49.68217865493616
46382;BME280;66809;52.974;-2.514;2024-02-14T05:33:40;999.5430599914242;;;8.245651215153128;49.696807218810726
46382;BME280;66809;52.974;-2.514;2024-02-14T05:35:41;999.5546478710273;;;8.237761857755077;49.71734591549634
46382;BME280;66809;52.974;-2.514;2024-02-14T05:37:40;999.567214279443;;;8.235309527221963;49.73301344428725
46382;BME280;66809;52.974;-2.514;2024-02-14T05:39:40;999.578077616727;;;8.233243686457715;49.74381753708544
46382;BME280;66809;52.974;-2.514;2024-02-14T05:41:41;999.5914418003377;;;8.223765366718604;49.74143593007552
46382;BME280;66809;52.974;-2.514;2024-02-14T05:43:40;999.6055944136511;;;8.222369634066617;49.734002245868865
46382;BME280;66809;52.974;-2.514;2024-02-14T05:45:40;999.6205615390182;;;8.227779403105504;49.71829342210276
46382;BME280;66809;52.974;-2.514;2024-02-14T05:47:40;999.6324920326787;;;8.228190991302155;49.683298950988934
46382;BME280;66809;52.974;-2.514;2024-02-14T05:49:40;999.6431372561062;;;8.242230496426174;49.64534773698503
46382;BME280;66809;52.974;-2.514;2024-02-14T05:51:40;999.6541121554451;;;8.238936879366403;49.610288478802
46382;BME280;66809;52.974;-2.514;2024-02-14T05:53:40;999.6624348591627;;;8.246850414331979;49.57154058225478
46382;BME280;66809;52.974;-2.514;2024-02-14T05:55:40;999.6711741384811;;;8.252304160082751;49.52483398275725
46382;BME280;66809;52.974;-2.514;2024-02-14T05:57:40;999.6799097167989;;;8.25663748172896;49.47083072784103
46382;BME280;66809;52.974;-2.514;2024-02-14T05:59:40;999.686505996188;;;8.261089449681023;49.42405640651272
46382;BME280;66809;52.974;-2.514;2024-02-14T06:01:40;999.6929353899592;;;8.260685141301511;49.38938860180705
46382;BME280;66809;52.974;-2.514;2024-02-14T06:03:41;999.6992512815301;;;8.261743776709489;49.36565572063469
46382;BME280;66809;52.974;-2.514;2024-02-14T06:05:40;999.7047478119745;;;8.265104525332848;49.34457889762141
46382;BME280;66809;52.974;-2.514;2024-02-14T06:07:40;999.7085161967599;;;8.252468041271682;49.32759072378003
46382;BME280;66809;52.974;-2.514;2024-02-14T06:09:40;999.7101536369133;;;8.25995411160003;49.29614645631509
46382;BME280;66809;52.974;-2.514;2024-02-14T06:11:40;999.7088421231293;;;8.261473842608387;49.2597305968331
46382;BME280;66809;52.974;-2.514;2024-02-14T06:13:41;999.7080053317143;;;8.264070024295496;49.23960807483839
46382;BME280;66809;52.974;-2.514;2024-02-14T06:15:40;999.7084712703074;;;8.275639412295622;49.20616649747546
46382;BME280;66809;52.974;-2.514;2024-02-14T06:17:40;999.7084926268236;;;8.274530306204452;49.150082231314755
46382;BME280;66809;52.974;-2.514;2024-02-14T06:19:40;999.7081282158647;;;8.281368413163802;49.0813290175555
46382;BME280;66809;52.974;-2.514;2024-02-14T06:21:40;999.7098156080531;;;8.275563660504469;49.0275698620077
46382;BME280;66809;52.974;-2.514;2024-02-14T06:23:40;999.7114985138489;;;8.27956294935603;48.981587651382874
46382;BME280;66809;52.974;-2.514;2024-02-14T06:25:40;999.7128880718861;;;8.273657376604984;48.93872105007767
46382;BME280;66809;52.974;-2.514;2024-02-14T06:27:40;999.7167514296808;;;8.266224623258939;48.88527291132848
46382;BME280;66809;52.974;-2.514;2024-02-14T06:29:42;999.7216327676522;;;8.268710566851627;48.825598261656204
46382;BME280;66809;52.974;-2.514;2024-02-14T06:31:40;999.7256402246554;;;8.274636856202301;48.7716291319099
46382;BME280;66809;52.974;-2.514;2024-02-14T06:33:40;999.7325690044635;;;8.261059361513064;48.721629091775526
46382;BME280;66809;52.974;-2.514;2024-02-14T06:35:40;999.743232677815;;;8.270916784773425;48.69679365489242
46382;BME280;66809;52.974;-2.514;2024-02-14T06:37:41;999.7528312627333;;;8.275244763543101;48.688018858583206
46382;BME280;66809;52.974;-2.514;2024-02-14T06:39:41;999.7622530127937;;;8.268749105145952;48.690247201984604
46382;BME280;66809;52.974;-2.514;2024-02-14T06:41:40;999.7677899873074;;;8.270160617413557;48.686761320577695
46382;BME280;66809;52.974;-2.514;2024-02-14T06:43:40;999.7715707833709;;;8.264034640488628;48.673718649261424
46382;BME280;66809;52.974;-2.514;2024-02-14T06:45:40;999.7745547302173;;;8.25665678592674;48.65978269768706
46382;BME280;66809;52.974;-2.514;2024-02-14T06:47:40;999.7800179735142;;;8.257923514352184;48.64387620816913
46382;BME280;66809;52.974;-2.514;2024-02-14T06:49:40;999.7844657041012;;;8.25779010157532;48.62044719945035
46382;BME280;66809;52.974;-2.514;2024-02-14T06:51:40;999.7886671584905;;;8.256864962781675;48.612039307171244
46382;BME280;66809;52.974;-2.514;2024-02-14T06:53:40;999.793899207543;;;8.246750143556424;48.61019670193142
46382;BME280;66809;52.974;-2.514;2024-02-14T06:55:40;999.7982187550505;;;8.231566028807114;48.6221265541693
46382;BME280;66809;52.974;-2.514;2024-02-14T06:57:40;999.8021185377936;;;8.218678597620466;48.64749856898186
46382;BME280;66809;52.974;-2.514;2024-02-14T06:59:41;999.8073271707996;;;8.204050961913016;48.66746575418906
46382;BME280;66809;52.974;-2.514;2024-02-14T07:01:40;999.8133384619898;;;8.206682785981483;48.66979032644058
46382;BME280;66809;52.974;-2.514;2024-02-14T07:03:40;999.8169693949216;;;8.197071055349742;48.66451577891483
46382;BME280;66809;52.974;-2.514;2024-02-14T07:05:41;999.8208706311412;;;8.190232957188373;48.66222262932284
46382;BME280;66809;52.974;-2.514;2024-02-14T07:07:41;999.8258597422972;;;8.192728395239422;48.65757926376239
46382;BME280;66809;52.974;-2.514;2024-02-14T07:09:40;999.8337522837803;;;8.186588665433712;48.67157547938163
46382;BME280;66809;52.974;-2.514;2024-02-14T07:11:40;999.8442263588394;;;8.173701215057623;48.69801643846274
46382;BME280;66809;52.974;-2.514;2024-02-14T07:13:40;999.8547035643261;;;8.174272613340573;48.7189475814265
46382;BME280;66809;52.974;-2.514;2024-02-14T07:15:40;999.864626901829;;;8.160717415334819;48.735540425540876
46382;BME280;66809;52.974;-2.514;2024-02-14T07:17:40;999.8763396917922;;;8.165463519503165;48.75641284439448